Time;durP1;ratioP1;P1;durP2;ratioP2;P2;SDS_P1;SDS_P2;PMS_P1;PMS_P2;Temp;Humidity;BMP_temperature;BMP_pressure;BME280_temperature;BME280_humidity;BME280_pressure;Samples;Min_cycle;Max_cycle;Signal;HPM_P1;HPM_P2
2023/10/21 00:02:10;;;;;;;;;;;;;;;17.87;72.09;94891.31;5113781;28;1083;-56
2023/10/21 00:04:36;;;;;;;;;;;;;;;17.83;72.96;94894.63;5114129;28;1004;-56
2023/10/21 00:07:02;;;;;;;;;;;;;;;17.73;73.84;94890.47;5110267;28;1914;-56
2023/10/21 00:09:28;;;;;;;;;;;;;;;17.66;74.23;94889.69;5093667;28;1222;-56
2023/10/21 00:11:54;;;;;;;;;;;;;;;17.63;74.09;94886.56;5093765;28;964;-56
2023/10/21 00:14:20;;;;;;;;;;;;;;;17.61;74.61;94900.28;5093341;28;1076;-56
2023/10/21 00:16:48;;;;;;;;;;;;;;;17.45;75.80;94884.50;5093344;28;1119;-56
2023/10/21 00:19:14;;;;;;;;;;;;;;;17.36;75.30;94895.56;5093461;28;1031;-56
2023/10/21 00:21:40;;;;;;;;;;;;;;;17.41;75.58;94894.09;5093279;28;1033;-56
2023/10/21 00:24:06;;;;;;;;;;;;;;;17.46;74.76;94897.00;5093276;28;1052;-56
2023/10/21 00:26:42;;;;;;;;;;;;;;;17.45;74.82;94887.22;5093403;28;1036;-56
2023/10/21 00:29:08;;;;;;;;;;;;;;;17.50;74.05;94888.25;5093573;28;1004;-56
2023/10/21 00:31:34;;;;;;;;;;;;;;;17.53;73.23;94889.72;5093282;28;1040;-56
2023/10/21 00:34:00;;;;;;;;;;;;;;;17.52;73.42;94888.03;5093570;28;966;-56
2023/10/21 00:36:26;;;;;;;;;;;;;;;17.49;73.14;94885.75;5093078;28;1223;-56
2023/10/21 00:38:52;;;;;;;;;;;;;;;17.53;72.36;94887.00;5093429;28;1053;-56
2023/10/21 00:41:18;;;;;;;;;;;;;;;17.47;73.04;94885.97;5093076;28;1032;-56
2023/10/21 00:43:44;;;;;;;;;;;;;;;17.39;72.75;94891.59;5093313;28;1028;-56
2023/10/21 00:46:10;;;;;;;;;;;;;;;17.49;71.72;94889.31;5093297;28;1012;-56
2023/10/21 00:48:37;;;;;;;;;;;;;;;17.48;71.76;94890.31;5092966;28;1985;-55
2023/10/21 00:51:03;;;;;;;;;;;;;;;17.49;71.06;94886.59;5093036;28;1081;-56
2023/10/21 00:53:31;;;;;;;;;;;;;;;17.49;71.26;94889.31;5093294;28;1052;-56
2023/10/21 00:55:58;;;;;;;;;;;;;;;17.51;71.00;94891.78;5094422;28;1040;-56
2023/10/21 00:58:27;;;;;;;;;;;;;;;17.48;70.37;94889.50;5114712;28;1230;-56
2023/10/21 01:00:54;;;;;;;;;;;;;;;17.61;69.95;94894.88;5117173;28;1095;-56
2023/10/21 01:03:22;;;;;;;;;;;;;;;17.72;70.49;94893.41;5117444;28;1037;-56
2023/10/21 01:05:48;;;;;;;;;;;;;;;17.69;70.76;94899.25;5117056;28;1044;-56
2023/10/21 01:08:14;;;;;;;;;;;;;;;17.43;72.03;94900.09;5112860;27;1913;-56
2023/10/21 01:10:40;;;;;;;;;;;;;;;17.10;73.30;94896.38;5137956;27;1216;-56
2023/10/21 01:13:06;;;;;;;;;;;;;;;16.89;73.62;94904.69;5137542;27;1087;-56
2023/10/21 01:15:32;;;;;;;;;;;;;;;16.72;74.60;94899.66;5137418;27;1099;-56
2023/10/21 01:17:58;;;;;;;;;;;;;;;16.48;76.04;94901.03;5137806;27;1035;-56
2023/10/21 01:20:25;;;;;;;;;;;;;;;16.34;76.24;94899.38;5137308;27;976;-56
2023/10/21 01:22:51;;;;;;;;;;;;;;;16.12;77.64;94909.44;5137650;27;968;-56
2023/10/21 01:25:16;;;;;;;;;;;;;;;16.04;78.17;94913.16;5137463;27;977;-56
2023/10/21 01:27:42;;;;;;;;;;;;;;;15.99;78.62;94918.28;5137138;27;1909;-56
2023/10/21 01:30:09;;;;;;;;;;;;;;;15.68;80.40;94914.16;5137312;27;1016;-56
2023/10/21 01:32:35;;;;;;;;;;;;;;;15.45;80.80;94924.41;5137083;27;1531;-56
2023/10/21 01:35:00;;;;;;;;;;;;;;;15.24;81.78;94926.09;5136965;27;1083;-56
2023/10/21 01:37:26;;;;;;;;;;;;;;;15.47;79.62;94914.25;5137159;27;969;-56
2023/10/21 01:39:52;;;;;;;;;;;;;;;15.48;79.66;94918.59;5137269;27;973;-56
2023/10/21 01:42:18;;;;;;;;;;;;;;;15.60;79.03;94909.78;5136873;27;1043;-56
2023/10/21 01:44:44;;;;;;;;;;;;;;;15.75;76.82;94908.88;5137229;27;973;-56
2023/10/21 01:47:10;;;;;;;;;;;;;;;16.00;76.27;94910.00;5136697;27;1910;-56
2023/10/21 01:49:37;;;;;;;;;;;;;;;16.10;75.18;94915.03;5136901;27;1044;-56
2023/10/21 01:52:03;;;;;;;;;;;;;;;16.32;74.49;94920.31;5136781;27;1099;-56
2023/10/21 01:54:29;;;;;;;;;;;;;;;16.31;74.59;94914.06;5136911;27;1027;-56
2023/10/21 01:56:55;;;;;;;;;;;;;;;16.31;74.67;94913.25;5131284;27;1158;-56
2023/10/21 01:59:21;;;;;;;;;;;;;;;16.34;74.64;94919.06;5116103;28;1045;-55
2023/10/21 02:01:47;;;;;;;;;;;;;;;16.32;74.68;94917.63;5116103;28;1048;-55
2023/10/21 02:04:13;;;;;;;;;;;;;;;16.24;75.40;94925.88;5115948;28;969;-56
2023/10/21 02:06:39;;;;;;;;;;;;;;;16.27;75.35;94922.78;5097259;28;1177;-56
2023/10/21 02:09:05;;;;;;;;;;;;;;;16.17;75.50;94926.69;5095472;28;1906;-56
2023/10/21 02:11:32;;;;;;;;;;;;;;;16.04;76.24;94932.03;5095359;28;1033;-55
2023/10/21 02:13:58;;;;;;;;;;;;;;;15.79;77.93;94937.91;5095558;28;1044;-56
2023/10/21 02:16:24;;;;;;;;;;;;;;;15.63;79.12;94930.09;5095276;28;1024;-56
2023/10/21 02:18:50;;;;;;;;;;;;;;;15.47;80.05;94935.81;5095557;28;1029;-56
2023/10/21 02:21:17;;;;;;;;;;;;;;;15.23;81.13;94936.06;5095517;28;1218;-55
2023/10/21 02:23:42;;;;;;;;;;;;;;;15.16;81.39;94935.16;5095473;28;986;-56
2023/10/21 02:26:08;;;;;;;;;;;;;;;14.97;82.02;94939.34;5095471;28;1041;-56
2023/10/21 02:28:34;;;;;;;;;;;;;;;14.75;83.21;94940.38;5095291;28;1981;-56
2023/10/21 02:31:03;;;;;;;;;;;;;;;14.59;83.75;94946.84;5095369;28;974;-56
2023/10/21 02:33:29;;;;;;;;;;;;;;;14.54;83.93;94943.88;5095223;28;1004;-55
2023/10/21 02:35:55;;;;;;;;;;;;;;;14.52;83.84;94945.91;5095281;28;974;-56
2023/10/21 02:38:22;;;;;;;;;;;;;;;14.53;84.09;94942.19;5095070;28;965;-55
2023/10/21 02:40:48;;;;;;;;;;;;;;;14.63;83.64;94942.75;5095208;28;1065;-55
2023/10/21 02:43:14;;;;;;;;;;;;;;;14.73;82.96;94942.44;5077137;28;1052;-55
2023/10/21 02:45:40;;;;;;;;;;;;;;;14.56;83.74;94942.63;5094816;28;910;-55
2023/10/21 02:48:06;;;;;;;;;;;;;;;14.45;84.24;94940.44;5094711;28;1993;-55
2023/10/21 02:50:32;;;;;;;;;;;;;;;14.21;84.96;94936.25;5094981;28;1030;-56
2023/10/21 02:52:58;;;;;;;;;;;;;;;14.42;83.36;94936.28;5094885;28;1271;-56
2023/10/21 02:55:27;;;;;;;;;;;;;;;14.57;83.15;94938.97;5094473;28;1108;-56
2023/10/21 02:57:53;;;;;;;;;;;;;;;14.63;82.93;94945.44;5108108;28;1081;-55
2023/10/21 03:00:21;;;;;;;;;;;;;;;14.61;82.86;94944.81;5114873;28;977;-56
2023/10/21 03:02:48;;;;;;;;;;;;;;;14.57;82.18;94946.19;5114767;28;1037;-56
2023/10/21 03:05:14;;;;;;;;;;;;;;;14.44;83.32;94950.38;5115068;28;972;-55
2023/10/21 03:07:40;;;;;;;;;;;;;;;14.47;83.38;94951.03;5123968;27;1909;-56
2023/10/21 03:10:06;;;;;;;;;;;;;;;14.30;84.65;94953.94;5135410;27;1000;-57
2023/10/21 03:12:32;;;;;;;;;;;;;;;14.25;85.32;94956.38;5135280;27;987;-57
2023/10/21 03:15:00;;;;;;;;;;;;;;;14.13;86.60;94957.84;5135512;27;1024;-57
2023/10/21 03:17:26;;;;;;;;;;;;;;;14.10;86.63;94967.16;5135027;27;1107;-56
2023/10/21 03:19:54;;;;;;;;;;;;;;;14.27;86.00;94973.16;5134618;27;973;-57
2023/10/21 03:22:20;;;;;;;;;;;;;;;14.23;86.37;94975.38;5135223;27;1028;-57
2023/10/21 03:24:46;;;;;;;;;;;;;;;14.09;86.88;94972.69;5135368;27;1125;-57
2023/10/21 03:27:15;;;;;;;;;;;;;;;14.18;86.39;94969.72;5135087;27;1910;-56
2023/10/21 03:29:41;;;;;;;;;;;;;;;14.05;87.00;94972.25;5134914;27;1048;-57
2023/10/21 03:32:07;;;;;;;;;;;;;;;13.88;87.17;94966.22;5134904;27;930;-57
2023/10/21 03:34:33;;;;;;;;;;;;;;;14.00;86.89;94977.34;5134982;27;1036;-57
2023/10/21 03:37:00;;;;;;;;;;;;;;;13.99;87.59;94965.75;5135016;27;976;-57
2023/10/21 03:39:26;;;;;;;;;;;;;;;13.94;87.87;94965.47;5134730;27;1480;-56
2023/10/21 03:41:52;;;;;;;;;;;;;;;13.88;88.11;94963.53;5134849;27;992;-57
2023/10/21 03:44:18;;;;;;;;;;;;;;;13.99;87.75;94973.00;5134893;27;1058;-57
2023/10/21 03:46:45;;;;;;;;;;;;;;;13.85;87.79;94975.50;5134539;27;1557;-57
2023/10/21 03:49:11;;;;;;;;;;;;;;;13.73;88.17;94965.41;5134728;27;1906;-57
2023/10/21 03:51:37;;;;;;;;;;;;;;;13.59;88.21;94967.06;5134723;27;1035;-56
2023/10/21 03:54:03;;;;;;;;;;;;;;;13.55;88.31;94960.41;5134721;27;1043;-57
2023/10/21 03:56:29;;;;;;;;;;;;;;;13.47;89.29;94961.31;5132681;27;1076;-57
2023/10/21 03:58:55;;;;;;;;;;;;;;;13.39;89.10;94967.59;5114282;28;956;-56
2023/10/21 04:01:21;;;;;;;;;;;;;;;13.47;88.84;94958.63;5114043;28;1032;-57
2023/10/21 04:03:47;;;;;;;;;;;;;;;13.44;89.21;94959.81;5114193;28;980;-57
2023/10/21 04:06:17;;;;;;;;;;;;;;;13.40;89.34;94969.25;5113956;28;961;-57
2023/10/21 04:08:43;;;;;;;;;;;;;;;13.23;89.70;94965.03;5095899;28;1910;-57
2023/10/21 04:11:09;;;;;;;;;;;;;;;13.35;89.57;94960.91;5093410;28;1040;-57
2023/10/21 04:13:35;;;;;;;;;;;;;;;13.36;89.43;94972.50;5093348;28;1096;-57
2023/10/21 04:16:01;;;;;;;;;;;;;;;13.29;89.22;94973.19;5093384;28;1045;-57
2023/10/21 04:18:27;;;;;;;;;;;;;;;13.22;89.48;94966.91;5093246;28;1096;-55
2023/10/21 04:20:54;;;;;;;;;;;;;;;13.37;89.04;94972.28;5107853;28;1079;-55
2023/10/21 04:23:20;;;;;;;;;;;;;;;13.52;87.93;94966.94;5113722;28;1012;-54
2023/10/21 04:25:47;;;;;;;;;;;;;;;13.58;87.26;94960.88;5113639;28;1033;-56
2023/10/21 04:28:13;;;;;;;;;;;;;;;13.69;87.04;94964.94;5113474;28;1922;-55
2023/10/21 04:30:39;;;;;;;;;;;;;;;13.82;86.40;94957.06;5116090;28;1028;-55
2023/10/21 04:33:05;;;;;;;;;;;;;;;13.87;85.76;94969.94;5117724;28;1960;-55
2023/10/21 04:35:31;;;;;;;;;;;;;;;13.93;85.47;94966.50;5117553;28;1072;-55
2023/10/21 04:37:59;;;;;;;;;;;;;;;13.90;85.68;94966.88;5117643;28;1045;-55
2023/10/21 04:40:25;;;;;;;;;;;;;;;13.77;86.06;94964.84;5117871;28;1060;-55
2023/10/21 04:42:51;;;;;;;;;;;;;;;13.77;86.84;94966.69;5117556;28;1032;-55
2023/10/21 04:45:17;;;;;;;;;;;;;;;13.89;86.71;94977.81;5117347;28;1111;-55
2023/10/21 04:47:43;;;;;;;;;;;;;;;13.81;86.82;94976.03;5117629;28;1993;-54
2023/10/21 04:50:09;;;;;;;;;;;;;;;13.81;86.85;94971.53;5117612;28;973;-55
2023/10/21 04:52:35;;;;;;;;;;;;;;;13.73;87.13;94976.97;5117663;28;1234;-55
2023/10/21 04:55:01;;;;;;;;;;;;;;;13.71;87.50;94980.88;5099588;28;1052;-55
2023/10/21 04:57:27;;;;;;;;;;;;;;;13.75;87.62;94982.16;5117070;28;1247;-55
2023/10/21 04:59:53;;;;;;;;;;;;;;;13.82;87.74;94991.97;5117251;28;1095;-55
2023/10/21 05:02:20;;;;;;;;;;;;;;;14.02;86.81;94986.91;5117408;28;1059;-56
2023/10/21 05:04:46;;;;;;;;;;;;;;;14.08;85.79;94992.56;5117168;28;1044;-55
2023/10/21 05:07:12;;;;;;;;;;;;;;;14.06;85.62;94987.38;5111864;28;1914;-55
2023/10/21 05:09:39;;;;;;;;;;;;;;;14.05;86.12;94993.75;5096700;28;1025;-56
2023/10/21 05:12:05;;;;;;;;;;;;;;;14.05;86.40;95002.63;5096981;28;1033;-55
2023/10/21 05:14:31;;;;;;;;;;;;;;;14.32;85.83;95002.16;5096775;28;965;-55
2023/10/21 05:16:57;;;;;;;;;;;;;;;14.30;85.88;95004.19;5096867;28;972;-55
2023/10/21 05:19:23;;;;;;;;;;;;;;;14.33;85.51;95001.97;5078768;28;927;-55
2023/10/21 05:21:49;;;;;;;;;;;;;;;14.32;86.25;95010.22;5096667;28;962;-55
2023/10/21 05:24:15;;;;;;;;;;;;;;;14.18;86.32;95015.44;5096246;28;1627;-54
2023/10/21 05:26:40;;;;;;;;;;;;;;;13.90;86.20;95012.56;5096740;28;1039;-55
2023/10/21 05:29:08;;;;;;;;;;;;;;;14.00;86.72;95021.19;5096238;28;2343;-55
2023/10/21 05:31:34;;;;;;;;;;;;;;;14.10;86.48;95026.28;5096552;28;1045;-54
2023/10/21 05:34:00;;;;;;;;;;;;;;;14.28;85.23;95036.66;5078496;28;1589;-53
2023/10/21 05:36:26;;;;;;;;;;;;;;;14.42;84.97;95038.50;5096226;28;1053;-55
2023/10/21 05:38:52;;;;;;;;;;;;;;;14.44;84.98;95046.38;5096088;28;1048;-54
2023/10/21 05:41:18;;;;;;;;;;;;;;;14.70;83.77;95042.38;5095168;28;1037;-55
2023/10/21 05:43:45;;;;;;;;;;;;;;;15.02;82.99;95050.00;5078054;28;1049;-55
2023/10/21 05:46:11;;;;;;;;;;;;;;;15.27;81.20;95055.00;5095883;28;1064;-55
2023/10/21 05:48:38;;;;;;;;;;;;;;;15.76;78.99;95056.91;5096482;28;1902;-55
2023/10/21 05:51:04;;;;;;;;;;;;;;;16.16;77.65;95057.19;5095911;28;1080;-55
2023/10/21 05:53:30;;;;;;;;;;;;;;;16.49;77.04;95056.53;5077865;28;1625;-55
2023/10/21 05:55:56;;;;;;;;;;;;;;;17.16;73.09;95062.22;5096147;28;966;-55
2023/10/21 05:58:26;;;;;;;;;;;;;;;19.00;66.33;95070.63;5077498;28;1454;-55
2023/10/21 06:00:53;;;;;;;;;;;;;;;20.77;60.76;95072.38;5096105;28;1127;-55
2023/10/21 06:03:19;;;;;;;;;;;;;;;22.08;55.62;95093.63;5095956;28;1041;-56
2023/10/21 06:05:45;;;;;;;;;;;;;;;23.67;50.00;95097.13;5095662;28;1080;-55
2023/10/21 06:08:11;;;;;;;;;;;;;;;24.52;47.58;95106.28;5108741;28;1902;-55
2023/10/21 06:10:38;;;;;;;;;;;;;;;25.03;46.68;95111.66;5115855;28;1105;-55
2023/10/21 06:13:06;;;;;;;;;;;;;;;25.01;45.97;95116.56;5115815;28;1115;-55
2023/10/21 06:15:32;;;;;;;;;;;;;;;25.22;45.22;95117.66;5097871;28;2002;-55
2023/10/21 06:17:59;;;;;;;;;;;;;;;25.93;44.11;95114.13;5116108;28;984;-56
2023/10/21 06:20:25;;;;;;;;;;;;;;;26.86;42.03;95122.91;5115660;28;1056;-56
2023/10/21 06:22:51;;;;;;;;;;;;;;;27.57;40.83;95129.03;5115791;28;1004;-56
2023/10/21 06:25:17;;;;;;;;;;;;;;;27.98;40.02;95129.19;5115571;28;1020;-56
2023/10/21 06:27:43;;;;;;;;;;;;;;;28.71;38.85;95139.19;5115785;28;1988;-56
2023/10/21 06:30:10;;;;;;;;;;;;;;;28.90;38.72;95126.50;5115785;28;996;-56
2023/10/21 06:32:36;;;;;;;;;;;;;;;28.53;38.51;95130.41;5115775;28;992;-56
2023/10/21 06:35:02;;;;;;;;;;;;;;;28.16;39.66;95130.59;5115807;28;1008;-56
2023/10/21 06:37:28;;;;;;;;;;;;;;;27.92;39.64;95117.34;5115326;28;1045;-56
2023/10/21 06:39:55;;;;;;;;;;;;;;;27.60;40.25;95114.75;5115671;28;1031;-56
2023/10/21 06:42:21;;;;;;;;;;;;;;;27.35;40.65;95118.25;5115196;28;1092;-56
2023/10/21 06:44:47;;;;;;;;;;;;;;;26.90;42.40;95114.97;5115217;28;1024;-56
2023/10/21 06:47:13;;;;;;;;;;;;;;;25.38;45.48;95097.63;5115035;28;2014;-55
2023/10/21 06:49:39;;;;;;;;;;;;;;;23.97;49.86;95097.69;5115135;28;1025;-56
2023/10/21 06:52:05;;;;;;;;;;;;;;;23.23;51.53;95085.91;5097203;28;986;-56
2023/10/21 06:54:31;;;;;;;;;;;;;;;22.87;52.16;95088.69;5114963;28;1005;-56
2023/10/21 06:56:57;;;;;;;;;;;;;;;22.51;53.90;95079.72;5099087;28;1068;-56
2023/10/21 06:59:23;;;;;;;;;;;;;;;22.52;55.74;95088.69;5114833;28;1009;-56
2023/10/21 07:01:49;;;;;;;;;;;;;;;22.58;54.19;95095.94;5114017;28;1479;-56
2023/10/21 07:04:15;;;;;;;;;;;;;;;22.77;54.16;95093.91;5114749;28;1116;-56
2023/10/21 07:06:41;;;;;;;;;;;;;;;22.78;52.95;95092.84;5115060;28;1157;-55
2023/10/21 07:09:07;;;;;;;;;;;;;;;22.66;53.47;95089.31;5114994;28;1913;-56
2023/10/21 07:11:33;;;;;;;;;;;;;;;22.73;54.89;95090.03;5114535;28;1103;-55
2023/10/21 07:13:59;;;;;;;;;;;;;;;22.88;54.02;95093.06;5114927;28;1212;-56
2023/10/21 07:16:25;;;;;;;;;;;;;;;22.95;53.17;95077.41;5114765;28;1030;-55
2023/10/21 07:18:51;;;;;;;;;;;;;;;23.05;52.39;95092.34;5114591;28;1028;-56
2023/10/21 07:21:17;;;;;;;;;;;;;;;23.07;51.07;95095.66;5114629;28;1031;-56
2023/10/21 07:23:43;;;;;;;;;;;;;;;23.09;52.94;95088.91;5114457;28;1043;-56
2023/10/21 07:26:09;;;;;;;;;;;;;;;23.17;50.96;95085.81;5114417;28;1091;-59
2023/10/21 07:28:35;;;;;;;;;;;;;;;23.30;52.04;95084.69;5114845;28;1902;-56
2023/10/21 07:31:01;;;;;;;;;;;;;;;23.47;49.70;95092.13;5114225;27;2942;-56
2023/10/21 07:33:28;;;;;;;;;;;;;;;23.75;50.45;95093.97;5094208;28;1000;-58
2023/10/21 07:35:54;;;;;;;;;;;;;;;23.93;48.66;95098.44;5094246;28;1028;-58
2023/10/21 07:38:20;;;;;;;;;;;;;;;23.80;49.06;95099.56;5094129;28;1027;-55
2023/10/21 07:40:46;;;;;;;;;;;;;;;23.91;48.69;95093.22;5093817;28;1040;-55
2023/10/21 07:43:13;;;;;;;;;;;;;;;24.10;47.96;95093.00;5093712;28;1020;-55
2023/10/21 07:45:42;;;;;;;;;;;;;;;24.38;47.98;95088.50;5093947;28;1142;-55
2023/10/21 07:48:08;;;;;;;;;;;;;;;24.52;47.90;95095.34;5093695;28;1918;-55
2023/10/21 07:50:34;;;;;;;;;;;;;;;24.63;45.20;95090.88;5110306;27;2463;-56
2023/10/21 07:53:00;;;;;;;;;;;;;;;24.90;45.32;95090.97;5113960;28;1108;-56
2023/10/21 07:55:26;;;;;;;;;;;;;;;25.18;43.95;95097.34;5113732;28;1048;-56
2023/10/21 07:57:52;;;;;;;;;;;;;;;25.32;44.03;95082.22;5127205;27;1225;-56
2023/10/21 08:00:18;;;;;;;;;;;;;;;25.31;42.77;95092.34;5134477;27;996;-55
2023/10/21 08:02:44;;;;;;;;;;;;;;;25.40;43.25;95083.69;5136578;27;2581;-56
2023/10/21 08:05:10;;;;;;;;;;;;;;;25.55;42.34;95085.78;5133459;27;1178;-56
2023/10/21 08:07:37;;;;;;;;;;;;;;;25.58;42.73;95083.34;5134048;27;1917;-55
2023/10/21 08:10:07;;;;;;;;;;;;;;;25.83;42.61;95081.97;5134412;27;957;-54
2023/10/21 08:12:33;;;;;;;;;;;;;;;25.93;42.85;95084.00;5134381;28;961;-55
2023/10/21 08:15:09;;;;;;;;;;;;;;;25.71;42.14;95074.72;5134218;28;1067;-55
2023/10/21 08:17:36;;;;;;;;;;;;;;;25.77;42.33;95072.88;5134188;28;1031;-55
2023/10/21 08:20:02;;;;;;;;;;;;;;;25.72;41.39;95081.03;5119421;27;2778;-55
2023/10/21 08:22:28;;;;;;;;;;;;;;;25.90;41.96;95072.44;5113471;28;1112;-55
2023/10/21 08:24:54;;;;;;;;;;;;;;;25.80;41.74;95066.88;5113518;28;1088;-54
2023/10/21 08:27:21;;;;;;;;;;;;;;;25.95;41.75;95057.19;5113588;28;1914;-55
2023/10/21 08:29:47;;;;;;;;;;;;;;;25.82;42.03;95061.13;5113774;28;977;-53
2023/10/21 08:32:13;;;;;;;;;;;;;;;26.08;39.00;95073.19;5113609;28;1024;-54
2023/10/21 08:34:39;;;;;;;;;;;;;;;26.36;38.81;95071.22;5113657;28;1008;-55
2023/10/21 08:37:07;;;;;;;;;;;;;;;26.79;35.86;95094.03;5113590;28;1040;-55
2023/10/21 08:39:34;;;;;;;;;;;;;;;26.97;36.90;95081.78;5119273;27;2450;-55
2023/10/21 08:42:00;;;;;;;;;;;;;;;27.11;36.62;95085.72;5113808;28;1040;-55
2023/10/21 08:44:26;;;;;;;;;;;;;;;27.21;35.31;95080.28;5113375;28;1088;-55
2023/10/21 08:46:56;;;;;;;;;;;;;;;27.36;36.05;95078.72;5113461;28;1088;-55
2023/10/21 08:49:23;;;;;;;;;;;;;;;27.35;35.14;95080.63;5113363;28;1967;-55
2023/10/21 08:51:49;;;;;;;;;;;;;;;27.30;33.66;95088.84;5113367;28;1079;-55
2023/10/21 08:54:16;;;;;;;;;;;;;;;27.45;34.96;95091.66;5095302;28;1036;-55
2023/10/21 08:56:42;;;;;;;;;;;;;;;27.57;34.28;95090.59;5113432;28;1080;-55
2023/10/21 08:59:08;;;;;;;;;;;;;;;27.55;35.08;95082.63;5113321;28;1143;-55
2023/10/21 09:01:35;;;;;;;;;;;;;;;27.62;34.14;95079.63;5113379;28;970;-55
2023/10/21 09:04:03;;;;;;;;;;;;;;;27.68;33.69;95084.03;5113631;28;958;-55
2023/10/21 09:06:29;;;;;;;;;;;;;;;27.58;33.17;95078.50;5113148;28;961;-55
2023/10/21 09:08:55;;;;;;;;;;;;;;;27.73;33.90;95088.72;5132759;28;2302;-55
2023/10/21 09:11:24;;;;;;;;;;;;;;;27.92;34.76;95078.88;5133990;28;1104;-56
2023/10/21 09:13:52;;;;;;;;;;;;;;;27.96;34.40;95073.69;5115868;28;978;-55
2023/10/21 09:16:23;;;;;;;;;;;;;;;27.94;32.59;95084.13;5133874;27;977;-55
2023/10/21 09:18:55;;;;;;;;;;;;;;;28.12;34.49;95064.34;5137535;27;1056;-55
2023/10/21 09:21:41;;;;;;;;;;;;;;;28.21;31.93;95075.63;5119109;27;969;-54
2023/10/21 09:24:11;;;;;;;;;;;;;;;28.18;32.49;95071.50;5137648;27;973;-55
2023/10/21 09:26:41;;;;;;;;;;;;;;;28.23;33.09;95071.50;5137843;27;964;-54
2023/10/21 09:29:08;;;;;;;;;;;;;;;28.26;32.86;95074.81;5137332;27;1905;-54
2023/10/21 09:31:47;;;;;;;;;;;;;;;28.24;32.12;95070.41;5137184;27;1056;-54
2023/10/21 09:34:23;;;;;;;;;;;;;;;28.17;31.43;95064.38;5137417;27;1104;-54
2023/10/21 09:36:49;;;;;;;;;;;;;;;28.22;31.84;95060.78;5137441;27;1030;-54
2023/10/21 09:39:16;;;;;;;;;;;;;;;28.24;31.94;95064.09;5137060;27;1041;-54
2023/10/21 09:41:43;;;;;;;;;;;;;;;28.28;31.60;95062.44;5118996;27;999;-54
2023/10/21 09:44:10;;;;;;;;;;;;;;;28.33;31.60;95061.63;5137230;27;1045;-54
2023/10/21 09:46:38;;;;;;;;;;;;;;;28.36;31.47;95061.06;5136978;27;1091;-54
2023/10/21 09:49:05;;;;;;;;;;;;;;;28.32;30.92;95046.22;5137129;27;1906;-54
2023/10/21 09:51:34;;;;;;;;;;;;;;;28.33;31.63;95053.38;5118714;27;1061;-55
2023/10/21 09:54:00;;;;;;;;;;;;;;;28.38;32.73;95047.84;5136874;27;1953;-54
2023/10/21 09:56:26;;;;;;;;;;;;;;;28.37;32.08;95043.47;5136840;27;1079;-55
2023/10/21 09:58:54;;;;;;;;;;;;;;;28.42;31.08;95057.22;5136936;27;952;-55
2023/10/21 10:01:23;;;;;;;;;;;;;;;28.48;31.74;95038.78;5136655;27;1963;-54
2023/10/21 10:03:55;;;;;;;;;;;;;;;28.62;31.95;95043.44;5136767;27;1048;-54
2023/10/21 10:06:21;;;;;;;;;;;;;;;28.62;32.25;95029.69;5136811;27;961;-55
2023/10/21 10:08:47;;;;;;;;;;;;;;;28.56;29.95;95033.56;5136648;27;1933;-54
2023/10/21 10:11:18;;;;;;;;;;;;;;;28.59;30.88;95038.53;5136425;27;961;-54
2023/10/21 10:13:49;;;;;;;;;;;;;;;28.60;31.64;95033.84;5136780;27;1024;-55
2023/10/21 10:16:18;;;;;;;;;;;;;;;28.57;30.34;95043.47;5136642;27;1055;-55
2023/10/21 10:18:49;;;;;;;;;;;;;;;28.59;31.34;95038.53;5136324;27;1035;-55
2023/10/21 10:21:15;;;;;;;;;;;;;;;28.61;30.87;95044.56;5136390;27;972;-55
2023/10/21 10:23:47;;;;;;;;;;;;;;;28.75;30.54;95033.00;5136528;27;1040;-55
2023/10/21 10:26:15;;;;;;;;;;;;;;;28.70;30.68;95031.06;5136472;27;977;-55
2023/10/21 10:28:41;;;;;;;;;;;;;;;28.71;31.19;95037.41;5136035;27;1986;-55
2023/10/21 10:31:09;;;;;;;;;;;;;;;28.67;30.51;95034.38;5136129;27;1033;-55
2023/10/21 10:33:35;;;;;;;;;;;;;;;28.76;31.02;95040.13;5135937;27;1032;-55
2023/10/21 10:36:06;;;;;;;;;;;;;;;28.78;30.63;95038.75;5135958;27;1036;-55
2023/10/21 10:38:36;;;;;;;;;;;;;;;28.65;30.47;95038.50;5135864;27;1036;-56
2023/10/21 10:41:10;;;;;;;;;;;;;;;28.62;30.83;95037.13;5135935;27;1095;-56
2023/10/21 10:43:39;;;;;;;;;;;;;;;28.78;30.42;95036.00;5135824;27;1024;-55
2023/10/21 10:46:06;;;;;;;;;;;;;;;28.90;30.20;95041.19;5135791;27;1163;-55
2023/10/21 10:48:34;;;;;;;;;;;;;;;28.88;30.59;95039.84;5135681;27;1986;-56
2023/10/21 10:51:13;;;;;;;;;;;;;;;28.85;29.80;95032.94;5135692;27;1075;-54
2023/10/21 10:53:39;;;;;;;;;;;;;;;28.62;29.19;95037.13;5135695;27;1020;-64
2023/10/21 10:56:14;;;;;;;;;;;;;;;28.55;30.21;95042.09;5135560;27;1044;-65
2023/10/21 10:58:43;;;;;;;;;;;;;;;28.64;30.86;95039.63;5115248;27;1079;-65
2023/10/21 11:01:17;;;;;;;;;;;;;;;28.66;29.98;95037.41;5114910;28;1040;-66
2023/10/21 11:03:43;;;;;;;;;;;;;;;28.69;29.70;95043.19;5114878;28;1039;-65
2023/10/21 11:06:12;;;;;;;;;;;;;;;28.67;30.84;95039.06;5114838;28;932;-65
2023/10/21 11:08:38;;;;;;;;;;;;;;;28.56;30.84;95033.56;5097903;28;1909;-65
2023/10/21 11:11:04;;;;;;;;;;;;;;;28.49;29.36;95024.75;5094396;28;1163;-63
2023/10/21 11:13:31;;;;;;;;;;;;;;;28.54;30.59;95023.97;5094238;28;1104;-61
2023/10/21 11:15:57;;;;;;;;;;;;;;;28.62;30.41;95020.63;5094365;28;1068;-64
2023/10/21 11:18:26;;;;;;;;;;;;;;;28.68;30.77;95025.00;5093786;28;1052;-64
2023/10/21 11:20:52;;;;;;;;;;;;;;;28.66;30.39;95018.97;5094233;28;972;-64
2023/10/21 11:23:19;;;;;;;;;;;;;;;28.74;30.55;95023.91;5094401;28;1004;-63
2023/10/21 11:25:49;;;;;;;;;;;;;;;28.81;30.50;95029.13;5094216;28;989;-64
2023/10/21 11:28:16;;;;;;;;;;;;;;;28.73;30.35;95030.50;5093944;28;1997;-61
2023/10/21 11:30:43;;;;;;;;;;;;;;;28.55;31.08;95017.34;5093811;28;1021;-63
2023/10/21 11:33:12;;;;;;;;;;;;;;;28.64;30.86;95017.63;5094019;28;970;-60
2023/10/21 11:35:39;;;;;;;;;;;;;;;28.58;30.04;95011.28;5076216;28;955;-63
2023/10/21 11:38:06;;;;;;;;;;;;;;;28.56;29.98;95011.56;5094101;28;1231;-61
2023/10/21 11:40:33;;;;;;;;;;;;;;;28.41;28.58;95008.81;5093209;28;1018;-63
2023/10/21 11:43:04;;;;;;;;;;;;;;;28.40;30.59;95010.75;5101016;28;1181;-66
2023/10/21 11:45:30;;;;;;;;;;;;;;;28.40;30.76;95004.41;5113976;28;1041;-65
2023/10/21 11:48:08;;;;;;;;;;;;;;;28.22;29.56;95008.56;5114010;28;1986;-66
2023/10/21 11:50:44;;;;;;;;;;;;;;;28.20;30.04;94997.84;5114213;28;1015;-63
2023/10/21 11:53:11;;;;;;;;;;;;;;;28.30;30.53;95008.00;5113825;28;1037;-66
2023/10/21 12:33:43;;;;;;;;;;;;;;;27.84;29.57;95008.78;5093233;28;960;-60
2023/10/21 12:39:19;;;;;;;;;;;;;;;27.78;29.71;95009.09;5093488;28;1065;-59
2023/10/21 12:41:52;;;;;;;;;;;;;;;27.75;30.54;94991.22;5092841;28;1238;-61
2023/10/21 12:44:23;;;;;;;;;;;;;;;27.73;31.16;94998.06;5092968;28;1028;-61
2023/10/21 12:46:55;;;;;;;;;;;;;;;27.69;30.86;95000.53;5093223;28;1055;-62
2023/10/21 12:49:24;;;;;;;;;;;;;;;27.73;30.32;95004.38;5092914;28;1979;-58
2023/10/21 12:51:51;;;;;;;;;;;;;;;27.70;30.68;94998.63;5095633;28;1033;-67
2023/10/21 12:54:17;;;;;;;;;;;;;;;27.69;30.57;94997.78;5096764;28;1198;-68
2023/10/21 12:56:43;;;;;;;;;;;;;;;27.70;30.70;94990.38;5100517;28;1088;-65
2023/10/21 12:59:09;;;;;;;;;;;;;;;27.65;30.38;94996.69;5121435;27;2636;-60
2023/10/21 13:01:38;;;;;;;;;;;;;;;27.69;30.47;94994.22;5117379;28;1007;-61
2023/10/21 13:04:04;;;;;;;;;;;;;;;27.66;30.65;94998.38;5117372;28;988;-58
2023/10/21 13:06:30;;;;;;;;;;;;;;;27.52;30.50;94998.03;5117104;28;1103;-64
2023/10/21 13:08:56;;;;;;;;;;;;;;;27.52;31.12;94992.56;5136700;27;1905;-68
2023/10/21 13:11:23;;;;;;;;;;;;;;;27.50;30.88;94989.25;5120368;27;2626;-64
2023/10/21 13:13:50;;;;;;;;;;;;;;;27.48;31.30;94985.97;5137170;27;1096;-62
2023/10/21 13:16:16;;;;;;;;;;;;;;;27.41;31.01;94985.38;5137354;27;973;-65
2023/10/21 13:18:43;;;;;;;;;;;;;;;27.39;31.67;94982.91;5137381;27;944;-74
2023/10/21 13:21:09;;;;;;;;;;;;;;;27.34;30.77;94973.84;5137212;27;1075;-67
2023/10/21 13:23:35;;;;;;;;;;;;;;;27.31;30.78;94986.19;5137616;27;1036;-66
2023/10/21 13:26:06;;;;;;;;;;;;;;;27.27;31.31;94979.59;5137375;27;1142;-70
2023/10/21 13:28:33;;;;;;;;;;;;;;;27.26;31.07;94975.19;5119230;27;1902;-70
2023/10/21 13:30:59;;;;;;;;;;;;;;;27.29;30.53;94982.91;5137255;27;1052;-69
2023/10/21 13:33:25;;;;;;;;;;;;;;;27.27;31.12;94979.59;5137699;27;965;-66
2023/10/21 13:35:54;;;;;;;;;;;;;;;27.17;31.15;94980.38;5137529;27;973;-67
2023/10/21 13:38:23;;;;;;;;;;;;;;;27.14;31.28;94969.09;5118892;27;1017;-64
2023/10/21 13:40:50;;;;;;;;;;;;;;;27.10;31.07;94974.31;5136805;27;1143;-66